Time;durP1;ratioP1;P1;durP2;ratioP2;P2;SDS_P1;SDS_P2;PMS_P1;PMS_P2;Temp;Humidity;BMP_temperature;BMP_pressure;BME280_temperature;BME280_humidity;BME280_pressure;Samples;Min_cycle;Max_cycle;Signal;HPM_P1;HPM_P2
2023/10/16 00:00:30;;;;;;;5.13;0.65;;;13.80;99.90;;;;;;5047207;28;20081;-70
2023/10/16 00:03:06;;;;;;;2.20;0.50;;;14.20;99.90;;;;;;5047198;28;20048;-70
2023/10/16 00:05:38;;;;;;;2.63;0.60;;;13.80;99.90;;;;;;5047015;28;20049;-70
2023/10/16 00:08:07;;;;;;;1.45;0.57;;;13.90;99.90;;;;;;5047127;28;20045;-70
2023/10/16 00:10:35;;;;;;;2.90;0.60;;;13.80;99.90;;;;;;4997647;28;20046;-69
2023/10/16 00:13:04;;;;;;;3.20;0.50;;;13.90;99.90;;;;;;5013791;28;20046;-69
2023/10/16 00:15:40;;;;;;;3.25;0.73;;;14.00;99.90;;;;;;5047123;28;20041;-71
2023/10/16 00:18:13;;;;;;;1.90;0.60;;;13.60;99.90;;;;;;5013959;28;20520;-70
2023/10/16 00:20:42;;;;;;;4.38;0.85;;;13.70;99.90;;;;;;5031937;28;20106;-69
2023/10/16 00:23:11;;;;;;;2.08;0.68;;;14.00;99.90;;;;;;5046708;28;20045;-69
2023/10/16 00:25:41;;;;;;;7.30;1.05;;;13.50;99.90;;;;;;5046970;28;20038;-69
2023/10/16 00:28:07;;;;;;;2.30;0.60;;;13.70;99.90;;;;;;5046825;28;20489;-70
2023/10/16 00:30:34;;;;;;;3.92;0.90;;;13.60;99.90;;;;;;5046904;28;20087;-69
2023/10/16 00:33:00;;;;;;;4.60;1.00;;;13.80;99.90;;;;;;5048047;28;20041;-70
2023/10/16 00:35:25;;;;;;;1.88;0.85;;;13.60;99.90;;;;;;5017704;28;20033;-70
2023/10/16 00:37:51;;;;;;;2.95;0.70;;;14.00;99.90;;;;;;5017686;28;20041;-71
2023/10/16 00:40:31;;;;;;;3.50;0.68;;;14.20;99.90;;;;;;5015910;28;20041;-70
2023/10/16 00:43:06;;;;;;;1.40;0.70;;;14.20;99.90;;;;;;5046655;28;20057;-70
2023/10/16 00:45:45;;;;;;;3.20;1.52;;;13.80;99.90;;;;;;5046899;28;20048;-70
2023/10/16 00:48:12;;;;;;;3.50;0.88;;;14.20;99.90;;;;;;4998043;28;20041;-70
2023/10/16 00:50:38;;;;;;;3.83;0.75;;;13.90;99.90;;;;;;5047073;28;20434;-69
2023/10/16 00:53:07;;;;;;;3.78;1.08;;;14.20;99.90;;;;;;4997328;28;20041;-68
2023/10/16 00:55:34;;;;;;;2.40;0.70;;;13.90;99.90;;;;;;5046593;28;20041;-69
2023/10/16 00:58:00;;;;;;;1.98;0.70;;;14.20;99.90;;;;;;4997144;28;20513;-69
2023/10/16 01:00:27;;;;;;;4.65;1.25;;;14.30;99.90;;;;;;5013594;28;20049;-70
2023/10/16 01:02:52;;;;;;;3.78;0.90;;;13.80;99.90;;;;;;5013449;28;20045;-69
2023/10/16 01:05:23;;;;;;;7.55;0.90;;;14.20;99.90;;;;;;5017178;28;20045;-69
2023/10/16 01:07:50;;;;;;;3.40;0.65;;;14.10;99.90;;;;;;5050694;28;20052;-70
2023/10/16 01:10:19;;;;;;;3.60;0.70;;;14.30;99.90;;;;;;5035069;28;20124;-69
2023/10/16 01:12:54;;;;;;;2.38;0.80;;;14.20;99.90;;;;;;5034829;28;20124;-69
2023/10/16 01:15:21;;;;;;;3.08;1.05;;;14.30;99.90;;;;;;5050258;28;20053;-69
2023/10/16 01:17:47;;;;;;;2.50;0.73;;;14.40;99.90;;;;;;5050334;28;20046;-70
2023/10/16 01:20:16;;;;;;;4.38;0.90;;;14.30;99.90;;;;;;5017400;28;20412;-70
2023/10/16 01:22:43;;;;;;;5.60;1.08;;;14.10;99.90;;;;;;5034598;28;20092;-69
2023/10/16 01:25:09;;;;;;;3.78;0.95;;;14.40;99.90;;;;;;5050174;28;20087;-69
2023/10/16 01:27:38;;;;;;;2.72;1.08;;;14.10;99.90;;;;;;5016912;28;20447;-69
2023/10/16 01:30:07;;;;;;;2.20;0.60;;;14.30;99.90;;;;;;5050365;28;20045;-69
2023/10/16 01:32:33;;;;;;;4.47;0.77;;;14.40;99.90;;;;;;5049853;28;20044;-69
2023/10/16 01:34:59;;;;;;;2.85;0.85;;;14.00;99.90;;;;;;5016841;28;20033;-69
2023/10/16 01:37:29;;;;;;;5.35;1.02;;;14.00;99.90;;;;;;5049948;28;20048;-69
2023/10/16 01:39:55;;;;;;;3.20;0.75;;;14.00;99.90;;;;;;5017067;28;20075;-69
2023/10/16 01:42:21;;;;;;;5.55;0.90;;;14.10;99.90;;;;;;5049518;28;20045;-69
2023/10/16 01:44:51;;;;;;;3.92;1.10;;;13.90;99.90;;;;;;5049684;28;20037;-69
2023/10/16 01:47:17;;;;;;;3.70;1.27;;;14.30;99.90;;;;;;5049730;28;20042;-70
2023/10/16 01:49:48;;;;;;;3.10;1.48;;;14.30;99.90;;;;;;5049245;28;20069;-69
2023/10/16 01:52:14;;;;;;;2.58;0.70;;;14.00;99.90;;;;;;5016353;28;20041;-69
2023/10/16 01:54:41;;;;;;;7.53;0.95;;;14.20;99.90;;;;;;5016204;28;20047;-69
2023/10/16 01:57:10;;;;;;;2.72;0.75;;;13.80;99.90;;;;;;5034242;28;20072;-70
2023/10/16 01:59:49;;;;;;;1.95;0.52;;;14.00;99.90;;;;;;5016461;28;20045;-69
2023/10/16 02:02:16;;;;;;;2.58;0.70;;;13.70;99.90;;;;;;5016097;28;20038;-69
2023/10/16 02:04:42;;;;;;;2.65;0.80;;;13.60;99.90;;;;;;5016554;28;20064;-69
2023/10/16 02:07:08;;;;;;;4.10;0.90;;;13.60;99.90;;;;;;5016301;28;20041;-69
2023/10/16 02:09:38;;;;;;;3.70;0.88;;;14.80;99.90;;;;;;5015803;28;20083;-69
2023/10/16 02:12:08;;;;;;;7.82;1.15;;;13.90;99.90;;;;;;5014931;28;20081;-69
2023/10/16 02:14:39;;;;;;;3.13;0.82;;;13.60;99.90;;;;;;5014459;28;20080;-69
2023/10/16 02:17:04;;;;;;;4.20;0.90;;;13.70;99.90;;;;;;5015349;28;20045;-68
2023/10/16 02:19:31;;;;;;;3.72;1.20;;;14.00;99.90;;;;;;5015564;28;20041;-69
2023/10/16 02:21:58;;;;;;;5.93;0.73;;;13.80;99.90;;;;;;5015949;28;20124;-69
2023/10/16 02:24:24;;;;;;;5.68;0.90;;;13.50;99.90;;;;;;5015987;28;20558;-69
2023/10/16 02:26:55;;;;;;;3.75;0.90;;;13.90;99.90;;;;;;5015811;28;20073;-69
2023/10/16 02:29:28;;;;;;;3.40;1.13;;;13.80;99.90;;;;;;5015791;28;20084;-69
2023/10/16 02:31:54;;;;;;;3.20;0.87;;;13.90;99.90;;;;;;5015656;28;20128;-69
2023/10/16 02:34:26;;;;;;;4.75;0.82;;;13.80;99.90;;;;;;5015940;28;20121;-69
2023/10/16 02:36:51;;;;;;;2.28;0.80;;;13.80;99.90;;;;;;5015997;28;20397;-69
2023/10/16 02:39:35;;;;;;;2.95;1.05;;;13.70;99.90;;;;;;4999267;28;20038;-69
2023/10/16 02:42:08;;;;;;;;;;;13.90;99.90;;;;;;5015677;28;20501;-71
2023/10/16 02:44:38;;;;;;;2.97;0.82;;;14.00;99.90;;;;;;5015263;28;19971;-70
2023/10/16 02:47:08;;;;;;;3.10;0.70;;;14.50;99.90;;;;;;5033352;28;20072;-70
2023/10/16 02:49:36;;;;;;;2.75;0.80;;;13.90;99.90;;;;;;4999160;28;20041;-69
2023/10/16 02:52:04;;;;;;;4.60;0.80;;;14.30;99.90;;;;;;5033679;28;20395;-70
2023/10/16 02:54:29;;;;;;;8.25;1.20;;;14.00;99.90;;;;;;5035028;28;20444;-70
2023/10/16 02:56:59;;;;;;;6.57;0.90;;;14.00;99.90;;;;;;5035426;28;20082;-70
2023/10/16 02:59:29;;;;;;;6.78;0.82;;;13.80;99.90;;;;;;5035104;28;20559;-70
2023/10/16 03:01:56;;;;;;;5.07;1.38;;;13.80;99.90;;;;;;5034671;28;20037;-70
2023/10/16 03:04:23;;;;;;;6.03;0.85;;;14.30;99.90;;;;;;5034828;28;20126;-70
2023/10/16 03:06:53;;;;;;;1.33;0.60;;;14.30;99.90;;;;;;5035037;28;20058;-70
2023/10/16 03:09:25;;;;;;;4.45;0.90;;;13.80;99.90;;;;;;5034778;28;20103;-70
2023/10/16 03:11:58;;;;;;;6.75;1.52;;;13.70;99.90;;;;;;5034693;28;20052;-70
2023/10/16 03:14:35;;;;;;;6.18;0.80;;;14.10;99.90;;;;;;5034798;28;20040;-70
2023/10/16 03:17:08;;;;;;;2.90;0.85;;;13.90;99.90;;;;;;5034773;28;20045;-70
2023/10/16 03:19:34;;;;;;;;;;;14.00;99.90;;;;;;5035176;28;20049;-70
2023/10/16 03:22:04;;;;;;;5.25;1.27;;;14.30;99.90;;;;;;5034491;28;19916;-70
2023/10/16 03:24:29;;;;;;;5.03;0.77;;;13.90;99.90;;;;;;5034479;28;20091;-70
2023/10/16 03:26:57;;;;;;;5.90;0.90;;;13.90;99.90;;;;;;5052201;28;20037;-70
2023/10/16 03:29:23;;;;;;;4.32;0.98;;;14.00;99.90;;;;;;5034372;28;20048;-70
2023/10/16 03:31:49;;;;;;;3.22;0.80;;;14.10;99.90;;;;;;5052044;28;20411;-70
2023/10/16 03:34:14;;;;;;;3.72;0.98;;;13.90;99.90;;;;;;5034680;28;20037;-70
2023/10/16 03:36:41;;;;;;;4.47;1.15;;;14.50;99.90;;;;;;5034435;28;20076;-70
2023/10/16 03:39:10;;;;;;;6.93;1.08;;;14.50;99.90;;;;;;5034295;28;20119;-70
2023/10/16 03:41:39;;;;;;;4.47;0.68;;;14.10;99.90;;;;;;5034058;28;20115;-70
2023/10/16 03:44:13;;;;;;;4.18;0.80;;;14.00;99.90;;;;;;5033922;28;20052;-70
2023/10/16 03:46:42;;;;;;;4.57;0.88;;;14.60;99.90;;;;;;5017542;28;20113;-70
2023/10/16 03:49:08;;;;;;;6.13;0.80;;;14.50;99.90;;;;;;5034102;28;20097;-69
2023/10/16 03:51:34;;;;;;;3.95;1.40;;;14.10;99.90;;;;;;5034138;28;20090;-70
2023/10/16 03:54:02;;;;;;;4.97;0.70;;;14.40;99.90;;;;;;5017453;28;20037;-70
2023/10/16 03:56:30;;;;;;;3.20;0.63;;;14.50;99.90;;;;;;5033988;28;20044;-70
2023/10/16 03:58:57;;;;;;;3.33;0.80;;;14.20;99.90;;;;;;5033756;28;20052;-70
2023/10/16 04:01:29;;;;;;;8.25;1.02;;;14.50;99.90;;;;;;5032987;28;20123;-70
2023/10/16 04:03:58;;;;;;;3.40;0.80;;;14.00;99.90;;;;;;5033383;28;20041;-70
2023/10/16 04:06:26;;;;;;;5.95;1.00;;;15.10;99.90;;;;;;5033611;28;20044;-69
2023/10/16 04:08:55;;;;;;;3.17;0.95;;;14.00;99.90;;;;;;5016408;28;20040;-70
2023/10/16 04:11:25;;;;;;;3.05;0.85;;;14.70;99.90;;;;;;5032807;28;20509;-70
2023/10/16 04:13:55;;;;;;;5.30;1.00;;;13.80;99.90;;;;;;5017441;28;20484;-70
2023/10/16 04:19:35;;;;;;;4.72;0.98;;;14.10;99.90;;;;;;5033944;28;20536;-69
2023/10/16 04:29:34;;;;;;;6.60;0.82;;;13.90;99.90;;;;;;5033414;28;20055;-67
2023/10/16 04:34:31;;;;;;;5.25;0.93;;;14.30;99.90;;;;;;5033812;28;20492;-69
2023/10/16 04:45:24;;;;;;;7.43;1.48;;;14.30;99.90;;;;;;5037383;28;20087;-69
2023/10/16 04:53:13;;;;;;;3.65;0.75;;;14.40;99.90;;;;;;5037092;28;20129;-69
2023/10/16 05:00:56;;;;;;;3.20;1.23;;;14.00;99.90;;;;;;5037290;28;20518;-69
2023/10/16 05:06:14;;;;;;;2.00;0.80;;;14.70;99.90;;;;;;5037202;28;20056;-69
2023/10/16 05:14:20;;;;;;;3.15;1.08;;;14.10;99.90;;;;;;5037007;28;20523;-69
2023/10/16 05:17:21;;;;;;;1.75;0.98;;;14.40;99.90;;;;;;5036444;28;20492;-68
2023/10/16 05:19:53;;;;;;;3.92;1.10;;;14.10;99.90;;;;;;5036520;28;20043;-69
2023/10/16 06:14:18;;;;;;;5.50;2.17;;;13.90;99.90;;;;;;5015810;28;20053;-70
2023/10/16 06:16:48;;;;;;;4.50;1.20;;;14.30;99.90;;;;;;5016035;28;20037;-70
2023/10/16 06:19:15;;;;;;;2.65;1.15;;;14.00;99.90;;;;;;5016082;28;20037;-70
2023/10/16 06:21:47;;;;;;;3.25;1.52;;;14.20;99.90;;;;;;5049159;28;20095;-70
2023/10/16 06:24:33;;;;;;;6.78;2.58;;;14.20;99.90;;;;;;5015885;28;20513;-70
2023/10/16 06:27:09;;;;;;;8.25;2.78;;;14.00;99.90;;;;;;5016216;28;20410;-70
2023/10/16 06:29:49;;;;;;;3.47;1.50;;;14.10;99.90;;;;;;5015866;28;20588;-70
2023/10/16 06:32:19;;;;;;;6.93;1.73;;;14.20;99.90;;;;;;5015973;28;20059;-69
2023/10/16 06:34:48;;;;;;;6.63;1.42;;;14.50;99.90;;;;;;5015604;28;20087;-70
2023/10/16 06:37:18;;;;;;;3.08;1.38;;;14.50;99.90;;;;;;5015722;28;20099;-70
2023/10/16 06:39:48;;;;;;;4.00;1.40;;;14.20;99.90;;;;;;5015728;28;20056;-70
2023/10/16 06:42:20;;;;;;;4.43;1.55;;;14.20;99.90;;;;;;5015439;28;20092;-70
2023/10/16 06:44:50;;;;;;;4.40;1.45;;;14.60;99.90;;;;;;5033331;28;20404;-70
2023/10/16 06:47:17;;;;;;;5.80;1.58;;;14.40;99.90;;;;;;5016098;28;20513;-70
2023/10/16 06:49:43;;;;;;;4.80;1.70;;;14.10;99.90;;;;;;5048372;28;20566;-70
2023/10/16 06:52:17;;;;;;;5.40;1.35;;;14.60;99.90;;;;;;5014755;28;20481;-70
2023/10/16 06:54:44;;;;;;;7.43;1.48;;;14.90;99.90;;;;;;5013735;28;20041;-69
2023/10/16 06:57:13;;;;;;;4.82;1.70;;;14.70;99.90;;;;;;5013680;28;20025;-69
2023/10/16 06:59:45;;;;;;;7.15;1.85;;;14.50;99.90;;;;;;5031387;28;20040;-69
2023/10/16 07:02:19;;;;;;;5.22;1.60;;;14.90;99.90;;;;;;5013440;28;20042;-69
2023/10/16 07:04:46;;;;;;;6.75;3.40;;;14.70;99.90;;;;;;5014159;28;20508;-69
2023/10/16 07:07:16;;;;;;;6.18;2.03;;;14.90;99.90;;;;;;5015040;28;20041;-69
2023/10/16 07:09:47;;;;;;;5.93;1.85;;;15.10;99.90;;;;;;4998659;28;20052;-69
2023/10/16 07:12:22;;;;;;;7.38;1.83;;;15.00;99.90;;;;;;5015150;28;20405;-69
2023/10/16 07:14:55;;;;;;;6.72;1.83;;;14.50;99.90;;;;;;5014922;28;20048;-70
2023/10/16 07:17:30;;;;;;;3.53;1.48;;;14.40;99.90;;;;;;5015023;28;20073;-69
2023/10/16 07:19:59;;;;;;;5.88;1.77;;;15.10;99.90;;;;;;5048031;28;20044;-69
2023/10/16 07:22:32;;;;;;;6.57;2.22;;;14.90;99.90;;;;;;5015305;28;20094;-70
2023/10/16 07:27:46;;;;;;;4.70;2.00;;;15.10;99.90;;;;;;5016780;28;20049;-69
2023/10/16 07:30:21;;;;;;;3.95;1.73;;;15.20;99.90;;;;;;4999727;28;20382;-68
2023/10/16 07:32:48;;;;;;;8.63;2.08;;;14.70;99.90;;;;;;5004328;28;20560;-69
2023/10/16 07:35:18;;;;;;;3.78;2.08;;;14.60;99.90;;;;;;5008001;28;20037;-69
2023/10/16 07:37:53;;;;;;;4.03;1.80;;;15.00;99.90;;;;;;5010950;28;20041;-67
2023/10/16 07:40:25;;;;;;;6.65;1.80;;;14.90;99.90;;;;;;5009054;28;20049;-69
2023/10/16 07:42:52;;;;;;;5.28;1.90;;;15.10;99.90;;;;;;5004102;28;20042;-68
2023/10/16 07:45:19;;;;;;;4.68;1.50;;;15.30;99.90;;;;;;5009234;28;20045;-68
2023/10/16 07:47:48;;;;;;;6.95;2.22;;;15.10;99.90;;;;;;5036417;28;20037;-69
2023/10/16 07:50:17;;;;;;;5.90;2.00;;;15.30;99.90;;;;;;5023128;28;20041;-67
2023/10/16 07:52:43;;;;;;;7.63;1.52;;;15.90;99.90;;;;;;5002362;28;20037;-69
2023/10/16 07:55:18;;;;;;;5.53;1.92;;;15.90;99.90;;;;;;5005680;28;20048;-68
2023/10/16 07:57:46;;;;;;;8.80;2.25;;;15.70;99.90;;;;;;5006442;28;20033;-69
2023/10/16 08:00:15;;;;;;;8.02;1.67;;;15.50;99.90;;;;;;4999015;28;20079;-69
2023/10/16 08:02:47;;;;;;;4.60;1.88;;;15.50;99.90;;;;;;5034453;28;20037;-69
2023/10/16 08:05:15;;;;;;;6.05;1.88;;;15.70;99.90;;;;;;5009497;28;20052;-70
2023/10/16 08:07:48;;;;;;;5.53;1.45;;;16.80;99.90;;;;;;5027189;28;20057;-69
2023/10/16 08:13:11;;;;;;;11.65;2.00;;;16.20;99.90;;;;;;5006248;28;20055;-68
2023/10/16 08:15:49;;;;;;;6.13;1.38;;;15.40;99.90;;;;;;4994175;28;20037;-67
2023/10/16 08:18:15;;;;;;;8.63;1.38;;;16.10;99.90;;;;;;4994097;28;20052;-69
2023/10/16 08:21:00;;;;;;;5.32;1.70;;;15.40;99.90;;;;;;5043644;28;20542;-67
2023/10/16 08:23:33;;;;;;;14.55;2.58;;;16.00;99.90;;;;;;5010158;28;20044;-68
2023/10/16 08:26:00;;;;;;;9.43;2.10;;;16.00;99.90;;;;;;5010646;28;20095;-65
2023/10/16 08:28:35;;;;;;;7.10;2.13;;;15.80;99.90;;;;;;5009947;28;20124;-69
2023/10/16 08:31:22;;;;;;;7.97;2.42;;;15.70;99.90;;;;;;5026586;28;20492;-69
2023/10/16 08:33:54;;;;;;;7.70;2.47;;;15.90;99.90;;;;;;5043288;28;20041;-67
2023/10/16 08:36:21;;;;;;;8.20;1.98;;;15.70;99.90;;;;;;5026852;28;20070;-69
2023/10/16 08:38:53;;;;;;;9.63;2.25;;;16.30;99.90;;;;;;5005803;28;20045;-68
2023/10/16 08:41:42;;;;;;;8.55;1.38;;;17.00;99.90;;;;;;5009828;28;20041;-68
2023/10/16 08:44:17;;;;;;;5.68;1.40;;;16.00;99.90;;;;;;5023267;28;20835;-69
2023/10/16 08:46:52;;;;;;;9.15;1.70;;;16.40;99.90;;;;;;5010069;28;20045;-69
2023/10/16 08:49:22;;;;;;;5.53;2.05;;;16.10;99.90;;;;;;5041140;28;20034;-69
2023/10/16 08:51:54;;;;;;;6.50;1.73;;;16.30;99.90;;;;;;5026292;28;20056;-69
2023/10/16 08:57:27;;;;;;;8.38;2.25;;;16.80;99.90;;;;;;4950208;28;20422;-69
2023/10/16 08:59:57;;;;;;;11.75;2.53;;;;;;;;;;4950256;28;20051;-69
2023/10/16 09:02:27;;;;;;;9.25;1.85;;;;;;;;;;4978881;28;20061;-66
2023/10/16 09:04:56;;;;;;;9.95;2.17;;;;;;;;;;5010436;28;20041;-68
2023/10/16 09:07:27;;;;;;;7.18;2.00;;;;;;;;;;5009870;28;20046;-69
2023/10/16 09:09:53;;;;;;;9.02;1.70;;;16.90;99.90;;;;;;4993818;28;20049;-67
2023/10/16 09:12:28;;;;;;;8.35;1.85;;;16.40;99.90;;;;;;5043017;28;20030;-69
2023/10/16 09:15:05;;;;;;;9.32;1.98;;;;;;;;;;5041849;28;20033;-69
2023/10/16 09:17:35;;;;;;;8.88;2.72;;;;;;;;;;5012731;28;20037;-70
2023/10/16 09:20:13;;;;;;;9.85;3.15;;;;;;;;;;5014599;28;20404;-69
2023/10/16 09:22:45;;;;;;;6.53;2.50;;;;;;;;;;5044370;28;20029;-69
2023/10/16 09:25:15;;;;;;;11.98;2.58;;;;;;;;;;5040456;28;20037;-70
2023/10/16 09:27:49;;;;;;;8.77;1.85;;;;;;;;;;5025913;28;20059;-69
2023/10/16 09:30:15;;;;;;;10.13;2.60;;;;;;;;;;5024595;28;20065;-68
2023/10/16 09:32:44;;;;;;;7.32;2.05;;;;;;;;;;5027248;28;20033;-68
2023/10/16 09:35:13;;;;;;;5.15;1.45;;;;;;;;;;5026741;28;20037;-69
2023/10/16 09:37:39;;;;;;;6.13;1.40;;;;;;;;;;5033871;28;20041;-69
2023/10/16 09:40:18;;;;;;;4.72;1.63;;;;;;;;;;5025009;28;20045;-69
2023/10/16 09:43:05;;;;;;;8.77;1.58;;;17.70;99.90;;;;;;5022817;28;20041;-68
2023/10/16 09:45:36;;;;;;;3.60;1.30;;;17.60;99.90;;;;;;5026535;28;20518;-69
2023/10/16 09:48:13;;;;;;;6.68;1.42;;;17.50;99.90;;;;;;5024973;28;20119;-70
2023/10/16 09:50:42;;;;;;;6.88;1.67;;;17.70;99.90;;;;;;5023807;28;20037;-69
2023/10/16 09:53:08;;;;;;;8.68;2.13;;;18.00;99.90;;;;;;5024833;28;20033;-69
2023/10/16 09:56:09;;;;;;;5.10;1.42;;;17.60;99.90;;;;;;5016039;28;20038;-68
2023/10/16 09:58:32;;;;;;;5.28;1.60;;;18.00;99.90;;;;;;5021699;28;20049;-69
2023/10/16 10:01:06;;;;;;;5.97;1.27;;;17.40;99.90;;;;;;5004152;28;20124;-69
2023/10/16 10:03:35;;;;;;;5.75;2.42;;;17.90;99.90;;;;;;5035882;28;20049;-69
2023/10/16 10:06:20;;;;;;;9.27;3.25;;;17.90;99.90;;;;;;5018397;28;20037;-70
2023/10/16 10:11:39;;;;;;;6.80;2.50;;;17.60;99.90;;;;;;5018002;28;20049;-69
2023/10/16 10:16:56;;;;;;;7.68;1.67;;;17.10;99.90;;;;;;5035923;28;20127;-70
2023/10/16 10:19:39;;;;;;;6.53;1.50;;;17.30;99.90;;;;;;5018096;28;20051;-70
2023/10/16 10:22:16;;;;;;;7.43;1.63;;;17.40;99.90;;;;;;5035936;28;20111;-69
2023/10/16 10:25:07;;;;;;;9.98;1.73;;;17.70;99.90;;;;;;5032893;28;20047;-69
2023/10/16 10:27:34;;;;;;;7.55;2.47;;;17.60;99.90;;;;;;5015769;28;20037;-70
2023/10/16 10:30:02;;;;;;;6.72;2.00;;;17.80;99.90;;;;;;5015888;28;20038;-69
2023/10/16 10:32:28;;;;;;;7.65;1.95;;;18.00;99.90;;;;;;5033598;28;20037;-69
2023/10/16 10:35:22;;;;;;;9.32;2.30;;;17.70;99.90;;;;;;5015652;28;20038;-70
2023/10/16 10:37:48;;;;;;;9.05;1.55;;;17.80;99.90;;;;;;5044808;28;20032;-70
2023/10/16 10:40:24;;;;;;;7.82;2.33;;;;;;;;;;5035011;28;20518;-70
2023/10/16 10:43:02;;;;;;;5.82;1.05;;;;;;;;;;5034737;28;20052;-70
2023/10/16 10:45:34;;;;;;;4.50;1.17;;;;;;;;;;5034833;28;20534;-70
2023/10/16 10:48:24;;;;;;;3.60;0.98;;;;;;;;;;5052462;28;20496;-70
2023/10/16 10:50:50;;;;;;;5.22;1.17;;;18.20;99.90;;;;;;5052630;28;20051;-70
2023/10/16 10:53:16;;;;;;;2.55;0.90;;;18.20;99.90;;;;;;5054053;28;20037;-70
2023/10/16 10:56:07;;;;;;;5.60;1.10;;;18.60;99.90;;;;;;5018621;28;20044;-71
2023/10/16 10:58:33;;;;;;;6.38;1.65;;;18.50;99.90;;;;;;5052649;28;20045;-71
2023/10/16 11:01:18;;;;;;;4.47;1.50;;;18.50;99.90;;;;;;5052685;28;20102;-68
2023/10/16 11:03:45;;;;;;;3.70;1.15;;;19.00;99.90;;;;;;5033695;28;20044;-68
2023/10/16 11:06:22;;;;;;;6.00;1.08;;;18.70;99.90;;;;;;5034649;28;20450;-68
2023/10/16 11:08:52;;;;;;;8.32;2.90;;;18.90;99.90;;;;;;5026850;28;20044;-68
2023/10/16 11:11:17;;;;;;;4.22;1.00;;;18.70;99.90;;;;;;5033797;28;20112;-70
2023/10/16 11:13:47;;;;;;;5.78;1.65;;;18.70;99.90;;;;;;5025399;28;20137;-70
2023/10/16 11:16:14;;;;;;;8.15;2.10;;;19.10;99.90;;;;;;5047960;28;20060;-70
2023/10/16 11:18:57;;;;;;;5.25;0.88;;;18.80;99.90;;;;;;5047973;28;20037;-71
2023/10/16 11:21:25;;;;;;;9.65;1.48;;;18.90;99.90;;;;;;5030325;28;20478;-70
2023/10/16 11:23:55;;;;;;;3.30;1.20;;;18.60;99.90;;;;;;5027575;28;20412;-71
2023/10/16 11:26:23;;;;;;;3.92;1.30;;;18.70;99.90;;;;;;5011609;28;20041;-70
2023/10/16 11:28:48;;;;;;;3.22;1.02;;;19.00;99.90;;;;;;5028131;28;20037;-71
2023/10/16 11:31:17;;;;;;;2.75;0.93;;;18.90;99.90;;;;;;5043950;28;20047;-70
2023/10/16 11:34:11;;;;;;;15.13;6.22;;;19.10;99.90;;;;;;5010868;28;20445;-71
2023/10/16 11:36:31;;;;;;;5.85;2.03;;;18.80;99.90;;;;;;5010359;28;20073;-70
2023/10/16 11:39:03;;;;;;;2.97;1.25;;;19.00;99.90;;;;;;5043963;28;20041;-68
2023/10/16 11:41:33;;;;;;;5.95;1.35;;;18.80;99.90;;;;;;5043372;28;20041;-69
2023/10/16 11:44:04;;;;;;;11.68;2.35;;;18.70;99.90;;;;;;5012221;28;20041;-68
2023/10/16 11:46:44;;;;;;;7.22;1.17;;;18.90;99.90;;;;;;4996154;28;20053;-71
2023/10/16 11:51:54;;;;;;;5.78;1.10;;;18.60;99.90;;;;;;5012782;28;20064;-69
2023/10/16 11:54:23;;;;;;;3.63;0.98;;;19.10;99.90;;;;;;4996443;28;20204;-70
2023/10/16 11:56:56;;;;;;;4.10;0.90;;;19.10;99.90;;;;;;5013932;28;20171;-69
2023/10/16 11:59:25;;;;;;;4.00;0.98;;;18.80;99.90;;;;;;5047610;28;20053;-70
2023/10/16 12:01:51;;;;;;;7.07;0.98;;;19.00;99.90;;;;;;5014376;28;20405;-70
2023/10/16 12:04:22;;;;;;;3.80;1.15;;;19.00;99.90;;;;;;5014368;28;20467;-70
2023/10/16 12:06:48;;;;;;;7.13;1.20;;;19.20;99.90;;;;;;5032515;28;20435;-69
2023/10/16 12:09:19;;;;;;;7.70;1.58;;;19.10;99.90;;;;;;5014251;28;20412;-70
2023/10/16 12:11:46;;;;;;;12.32;2.33;;;19.00;99.90;;;;;;5013973;28;20041;-70
2023/10/16 12:14:14;;;;;;;5.70;1.10;;;19.00;99.90;;;;;;5014072;28;20091;-70
2023/10/16 12:16:41;;;;;;;3.38;0.88;;;19.00;99.90;;;;;;5014023;28;20485;-69
2023/10/16 12:19:09;;;;;;;4.20;0.82;;;19.00;99.90;;;;;;5014004;28;20050;-70
2023/10/16 12:21:35;;;;;;;3.88;0.88;;;19.00;99.90;;;;;;5031609;28;20053;-70
2023/10/16 12:24:01;;;;;;;3.85;1.10;;;19.00;99.90;;;;;;5031541;28;20041;-70
2023/10/16 12:26:27;;;;;;;5.53;1.02;;;19.10;99.90;;;;;;5013854;28;20041;-70
2023/10/16 12:28:53;;;;;;;10.82;1.27;;;18.90;99.90;;;;;;5014072;28;20468;-70
2023/10/16 12:31:19;;;;;;;4.07;1.00;;;18.80;99.90;;;;;;5014229;28;20037;-70
2023/10/16 12:33:46;;;;;;;4.72;0.75;;;19.10;99.90;;;;;;4997524;28;20048;-69
2023/10/16 12:36:11;;;;;;;6.68;1.35;;;19.00;99.90;;;;;;5014097;28;20084;-69
2023/10/16 12:38:37;;;;;;;1.95;0.90;;;18.80;99.90;;;;;;5031685;28;20037;-69
2023/10/16 12:41:05;;;;;;;4.55;1.10;;;18.80;99.90;;;;;;5014157;28;20045;-70
2023/10/16 12:43:31;;;;;;;7.32;1.10;;;18.60;99.90;;;;;;5013879;28;20033;-70
2023/10/16 12:45:57;;;;;;;6.80;1.10;;;18.60;99.90;;;;;;5014280;28;20061;-70
2023/10/16 12:48:25;;;;;;;6.32;1.23;;;18.80;99.90;;;;;;5032324;28;20056;-70
2023/10/16 12:50:53;;;;;;;5.50;1.20;;;18.80;99.90;;;;;;5013755;28;20121;-70
2023/10/16 12:53:20;;;;;;;5.15;1.60;;;18.60;99.90;;;;;;5013487;28;20048;-70
2023/10/16 12:55:49;;;;;;;1.92;0.77;;;18.80;99.90;;;;;;5013620;28;20053;-69
2023/10/16 12:58:17;;;;;;;5.80;1.30;;;18.60;99.90;;;;;;5013925;28;20520;-69
2023/10/16 13:00:46;;;;;;;2.83;0.90;;;19.10;99.90;;;;;;5034409;28;20048;-69
2023/10/16 13:03:14;;;;;;;5.63;1.00;;;18.80;99.90;;;;;;5017536;28;20037;-69
2023/10/16 13:05:40;;;;;;;4.22;0.88;;;18.90;99.90;;;;;;5035281;28;20037;-69
2023/10/16 13:08:08;;;;;;;8.10;1.65;;;18.90;99.90;;;;;;5001064;28;20037;-68
2023/10/16 13:10:34;;;;;;;6.55;1.60;;;19.30;99.90;;;;;;5035159;28;20083;-69
2023/10/16 13:13:00;;;;;;;5.47;1.40;;;19.20;99.90;;;;;;5017141;28;20061;-68
2023/10/16 13:15:29;;;;;;;7.85;1.52;;;19.20;99.90;;;;;;5017678;28;20470;-69
2023/10/16 13:17:55;;;;;;;10.70;1.83;;;19.50;99.90;;;;;;5017389;28;20037;-69
2023/10/16 13:20:26;;;;;;;3.97;1.08;;;19.00;99.90;;;;;;5050369;28;20469;-69
2023/10/16 13:22:52;;;;;;;3.67;0.98;;;19.10;99.90;;;;;;5017115;28;20076;-69
2023/10/16 13:25:31;;;;;;;5.47;1.00;;;18.90;99.90;;;;;;5017315;28;20054;-69
2023/10/16 13:27:58;;;;;;;5.68;1.55;;;18.80;99.90;;;;;;5017237;28;20167;-69
2023/10/16 13:30:25;;;;;;;4.28;1.35;;;19.10;99.90;;;;;;5000597;28;20045;-69
2023/10/16 13:32:51;;;;;;;4.85;1.10;;;18.90;99.90;;;;;;5016944;28;20126;-69
2023/10/16 13:35:18;;;;;;;5.85;0.98;;;18.90;99.90;;;;;;5000611;28;20037;-70
2023/10/16 13:37:48;;;;;;;7.32;1.40;;;19.30;99.90;;;;;;5050026;28;20038;-69
2023/10/16 13:40:21;;;;;;;5.65;1.10;;;19.00;99.90;;;;;;5016915;28;20103;-69
2023/10/16 13:42:47;;;;;;;;;;;18.90;99.90;;;;;;5017223;28;20045;-69
2023/10/16 13:45:13;;;;;;;5.50;1.00;;;18.90;99.90;;;;;;5016964;28;19940;-68
2023/10/16 13:47:43;;;;;;;4.45;1.08;;;18.80;99.90;;;;;;5016583;28;20125;-69
2023/10/16 13:50:25;;;;;;;5.28;1.33;;;18.90;99.90;;;;;;5016647;28;20042;-68
2023/10/16 13:52:52;;;;;;;3.97;0.80;;;18.40;99.90;;;;;;5017463;28;20167;-69
2023/10/16 13:55:21;;;;;;;4.15;0.93;;;18.90;99.90;;;;;;5017232;28;20077;-70
2023/10/16 13:57:48;;;;;;;13.55;2.70;;;18.80;99.90;;;;;;5017953;28;20120;-70
2023/10/16 14:00:58;;;;;;;3.78;1.02;;;19.30;99.90;;;;;;5016463;28;20072;-69
2023/10/16 14:03:16;;;;;;;10.73;1.30;;;18.60;99.90;;;;;;5008467;28;20045;-69
2023/10/16 14:05:46;;;;;;;7.80;1.48;;;18.70;99.90;;;;;;5016510;28;20389;-70
2023/10/16 14:08:17;;;;;;;6.13;1.48;;;18.60;99.90;;;;;;5016271;28;20041;-68
2023/10/16 14:10:49;;;;;;;7.05;2.38;;;18.80;99.90;;;;;;5015260;28;20045;-69
2023/10/16 14:13:19;;;;;;;7.75;1.52;;;18.60;99.90;;;;;;5015739;28;20049;-69
2023/10/16 14:15:49;;;;;;;4.00;0.98;;;18.80;99.90;;;;;;5016599;28;20045;-70
2023/10/16 14:18:20;;;;;;;5.45;1.45;;;18.90;99.90;;;;;;5034000;28;20038;-69
2023/10/16 14:20:49;;;;;;;4.75;1.77;;;18.60;99.90;;;;;;5016417;28;20080;-70
2023/10/16 14:23:16;;;;;;;9.43;1.10;;;18.40;99.90;;;;;;5015701;28;20060;-70
2023/10/16 14:25:49;;;;;;;6.63;1.65;;;18.80;99.90;;;;;;5016028;28;20072;-69
2023/10/16 14:28:40;;;;;;;7.87;1.33;;;18.80;99.90;;;;;;5015941;28;20421;-70
2023/10/16 14:31:09;;;;;;;6.70;1.15;;;18.80;99.90;;;;;;4999704;28;20038;-69
2023/10/16 14:33:36;;;;;;;5.45;1.20;;;18.70;99.90;;;;;;5015479;28;20120;-70
2023/10/16 14:36:09;;;;;;;3.75;0.98;;;18.70;99.90;;;;;;5015849;28;20041;-70
2023/10/16 14:38:37;;;;;;;4.88;1.30;;;18.60;99.90;;;;;;5015721;28;20493;-69
2023/10/16 14:41:06;;;;;;;5.47;0.93;;;18.70;99.90;;;;;;5033655;28;20037;-70
2023/10/16 14:43:34;;;;;;;3.38;1.00;;;18.40;99.90;;;;;;5015496;28;20094;-71
2023/10/16 14:46:12;;;;;;;5.53;1.20;;;18.60;99.90;;;;;;5015773;28;20046;-70
2023/10/16 14:48:38;;;;;;;5.55;1.83;;;18.40;99.90;;;;;;5015492;28;20124;-70
2023/10/16 14:51:04;;;;;;;6.50;2.38;;;18.70;99.90;;;;;;5015846;28;20037;-68
2023/10/16 14:53:31;;;;;;;9.68;1.20;;;18.30;99.90;;;;;;5015210;28;20485;-69
2023/10/16 14:55:56;;;;;;;5.38;1.25;;;18.50;99.90;;;;;;5033158;28;20167;-68
2023/10/16 14:58:23;;;;;;;5.72;1.70;;;18.80;99.90;;;;;;5015405;28;20116;-69